MCY weather

Sunshine Coast Airport
Maroochydore, Queensland, Australia

Public forecast

Using degrees Celsius for public forecast. Weather courtesy of forecast.io.

METAR (pilot weather report)

Closest report is Brisbane International Airport, 46.9 nm (86.9 km) S. Retrieved 2018/07/18 00:30 UTC (1 minute ago):

YBBN 180030Z 27003KT CAVOK 18/03 Q1021 FM0300 03007KT CAVOK

TAF (pilot weather forecast)

Forecast is more than 12 hours old.

Closest forecast is Brisbane International Airport, 46.9 nm (86.9 km) S. Retrieved 2018/07/17 00:00 UTC (1 day ago):

TAF YBBN 172315Z 1800/1906 21007KT CAVOK FM180300 03007KT CAVOK FM180800 31005KT CAVOK FM181400 21007KT CAVOK FM190200 02010KT CAVOK